sensor_id;sensor_type;location;lat;lon;timestamp;pressure;altitude;pressure_sealevel;temperature;humidity
78613;BME280;67933;51.060;3.638;2023-06-10T00:01:40;101358.78;;;21.80;50.48
78613;BME280;67933;51.060;3.638;2023-06-10T00:04:06;101355.69;;;21.75;50.83
78613;BME280;67933;51.060;3.638;2023-06-10T00:06:32;101361.50;;;21.71;50.94
78613;BME280;67933;51.060;3.638;2023-06-10T00:09:10;101355.84;;;21.64;50.89
78613;BME280;67933;51.060;3.638;2023-06-10T00:11:36;101354.72;;;21.57;51.70
78613;BME280;67933;51.060;3.638;2023-06-10T00:14:03;101353.03;;;21.56;51.43
78613;BME280;67933;51.060;3.638;2023-06-10T00:16:28;101349.59;;;21.54;51.46
78613;BME280;67933;51.060;3.638;2023-06-10T00:18:54;101355.31;;;21.51;51.48
78613;BME280;67933;51.060;3.638;2023-06-10T00:21:32;101363.81;;;21.56;51.27
78613;BME280;67933;51.060;3.638;2023-06-10T00:24:08;101355.88;;;21.55;51.20
78613;BME280;67933;51.060;3.638;2023-06-10T00:26:39;101358.44;;;21.56;51.05
78613;BME280;67933;51.060;3.638;2023-06-10T00:29:05;101358.31;;;21.48;51.26
78613;BME280;67933;51.060;3.638;2023-06-10T00:31:31;101359.00;;;21.50;51.06
78613;BME280;67933;51.060;3.638;2023-06-10T00:33:56;101358.72;;;21.53;50.74
78613;BME280;67933;51.060;3.638;2023-06-10T00:36:24;101362.72;;;21.49;50.85
78613;BME280;67933;51.060;3.638;2023-06-10T00:38:49;101359.28;;;21.47;50.66
78613;BME280;67933;51.060;3.638;2023-06-10T00:41:14;101359.59;;;21.44;50.82
78613;BME280;67933;51.060;3.638;2023-06-10T00:43:40;101360.34;;;21.36;51.28
78613;BME280;67933;51.060;3.638;2023-06-10T00:46:05;101354.22;;;21.34;51.34
78613;BME280;67933;51.060;3.638;2023-06-10T00:48:32;101357.06;;;21.33;50.93
78613;BME280;67933;51.060;3.638;2023-06-10T00:50:57;101361.75;;;21.31;51.26
78613;BME280;67933;51.060;3.638;2023-06-10T00:53:24;101362.59;;;21.22;51.41
78613;BME280;67933;51.060;3.638;2023-06-10T00:55:50;101361.31;;;21.16;51.55
78613;BME280;67933;51.060;3.638;2023-06-10T00:58:15;101362.16;;;21.07;51.80
78613;BME280;67933;51.060;3.638;2023-06-10T01:00:41;101361.91;;;21.00;52.12
78613;BME280;67933;51.060;3.638;2023-06-10T01:03:06;101351.41;;;20.97;52.07
78613;BME280;67933;51.060;3.638;2023-06-10T01:05:34;101362.47;;;21.04;51.90
78613;BME280;67933;51.060;3.638;2023-06-10T01:10:37;101361.34;;;20.97;51.97
78613;BME280;67933;51.060;3.638;2023-06-10T01:13:05;101357.34;;;20.91;52.30
78613;BME280;67933;51.060;3.638;2023-06-10T01:15:34;101365.59;;;20.80;52.80
78613;BME280;67933;51.060;3.638;2023-06-10T01:18:10;101362.19;;;20.78;52.55
78613;BME280;67933;51.060;3.638;2023-06-10T01:20:41;101354.81;;;20.80;52.39
78613;BME280;67933;51.060;3.638;2023-06-10T01:23:08;101359.63;;;20.77;52.85
78613;BME280;67933;51.060;3.638;2023-06-10T01:25:38;101361.47;;;20.76;52.77
78613;BME280;67933;51.060;3.638;2023-06-10T01:28:14;101364.59;;;20.71;52.84
78613;BME280;67933;51.060;3.638;2023-06-10T01:30:53;101367.31;;;20.71;52.77
78613;BME280;67933;51.060;3.638;2023-06-10T01:33:25;101369.97;;;20.62;53.01
78613;BME280;67933;51.060;3.638;2023-06-10T01:35:52;101369.25;;;20.60;53.20
78613;BME280;67933;51.060;3.638;2023-06-10T01:38:19;101366.72;;;20.58;53.21
78613;BME280;67933;51.060;3.638;2023-06-10T01:40:46;101366.44;;;20.61;53.27
78613;BME280;67933;51.060;3.638;2023-06-10T01:43:13;101364.59;;;20.62;53.38
78613;BME280;67933;51.060;3.638;2023-06-10T01:45:38;101363.44;;;20.55;53.80
78613;BME280;67933;51.060;3.638;2023-06-10T01:48:04;101366.16;;;20.55;53.75
78613;BME280;67933;51.060;3.638;2023-06-10T01:50:29;101367.25;;;20.52;53.84
78613;BME280;67933;51.060;3.638;2023-06-10T01:52:57;101355.78;;;20.50;54.10
78613;BME280;67933;51.060;3.638;2023-06-10T01:55:23;101368.13;;;20.53;53.88
78613;BME280;67933;51.060;3.638;2023-06-10T01:57:48;101363.28;;;20.47;54.34
78613;BME280;67933;51.060;3.638;2023-06-10T02:00:14;101367.97;;;20.45;54.30
78613;BME280;67933;51.060;3.638;2023-06-10T02:02:40;101374.38;;;20.44;54.59
78613;BME280;67933;51.060;3.638;2023-06-10T02:05:06;101363.16;;;20.48;54.21
78613;BME280;67933;51.060;3.638;2023-06-10T02:07:31;101373.66;;;20.42;54.72
78613;BME280;67933;51.060;3.638;2023-06-10T02:09:57;101364.84;;;20.40;54.71
78613;BME280;67933;51.060;3.638;2023-06-10T02:12:22;101368.09;;;20.33;54.94
78613;BME280;67933;51.060;3.638;2023-06-10T02:14:48;101372.88;;;20.30;55.36
78613;BME280;67933;51.060;3.638;2023-06-10T02:17:13;101363.66;;;20.32;55.23
78613;BME280;67933;51.060;3.638;2023-06-10T02:19:40;101375.56;;;20.30;55.54
78613;BME280;67933;51.060;3.638;2023-06-10T02:22:11;101375.69;;;20.19;55.68
78613;BME280;67933;51.060;3.638;2023-06-10T02:24:36;101384.63;;;20.19;55.51
78613;BME280;67933;51.060;3.638;2023-06-10T02:27:04;101375.22;;;20.14;56.09
78613;BME280;67933;51.060;3.638;2023-06-10T02:29:33;101381.03;;;20.09;56.54
78613;BME280;67933;51.060;3.638;2023-06-10T02:31:58;101378.22;;;20.11;56.35
78613;BME280;67933;51.060;3.638;2023-06-10T02:34:24;101390.53;;;20.04;56.81
78613;BME280;67933;51.060;3.638;2023-06-10T02:36:49;101379.88;;;20.02;56.48
78613;BME280;67933;51.060;3.638;2023-06-10T02:39:16;101385.13;;;20.04;56.70
78613;BME280;67933;51.060;3.638;2023-06-10T02:41:41;101373.34;;;19.95;57.09
78613;BME280;67933;51.060;3.638;2023-06-10T02:44:07;101377.81;;;19.85;57.84
78613;BME280;67933;51.060;3.638;2023-06-10T02:46:32;101382.63;;;19.81;58.06
78613;BME280;67933;51.060;3.638;2023-06-10T02:48:59;101387.47;;;19.87;57.51
78613;BME280;67933;51.060;3.638;2023-06-10T02:51:24;101380.81;;;19.82;57.85
78613;BME280;67933;51.060;3.638;2023-06-10T02:53:50;101384.19;;;19.84;57.77
78613;BME280;67933;51.060;3.638;2023-06-10T02:56:16;101382.34;;;19.84;58.11
78613;BME280;67933;51.060;3.638;2023-06-10T02:58:42;101381.06;;;19.79;58.45
78613;BME280;67933;51.060;3.638;2023-06-10T03:01:07;101383.75;;;19.79;58.17
78613;BME280;67933;51.060;3.638;2023-06-10T03:03:34;101380.88;;;19.71;58.55
78613;BME280;67933;51.060;3.638;2023-06-10T03:06:02;101384.84;;;19.67;58.59
78613;BME280;67933;51.060;3.638;2023-06-10T03:08:28;101385.63;;;19.57;59.22
78613;BME280;67933;51.060;3.638;2023-06-10T03:10:53;101385.88;;;19.54;59.15
78613;BME280;67933;51.060;3.638;2023-06-10T03:13:19;101383.06;;;19.56;59.31
78613;BME280;67933;51.060;3.638;2023-06-10T03:15:44;101386.66;;;19.45;59.94
78613;BME280;67933;51.060;3.638;2023-06-10T03:18:11;101386.44;;;19.37;60.18
78613;BME280;67933;51.060;3.638;2023-06-10T03:20:36;101390.97;;;19.37;60.22
78613;BME280;67933;51.060;3.638;2023-06-10T03:23:04;101389.13;;;19.37;60.24
78613;BME280;67933;51.060;3.638;2023-06-10T03:25:30;101387.97;;;19.30;60.82
78613;BME280;67933;51.060;3.638;2023-06-10T03:27:55;101381.16;;;19.26;60.92
78613;BME280;67933;51.060;3.638;2023-06-10T03:30:21;101377.72;;;19.24;60.91
78613;BME280;67933;51.060;3.638;2023-06-10T03:32:46;101384.94;;;19.23;60.79
78613;BME280;67933;51.060;3.638;2023-06-10T03:35:12;101388.50;;;19.24;60.95
78613;BME280;67933;51.060;3.638;2023-06-10T03:37:37;101390.72;;;19.19;60.92
78613;BME280;67933;51.060;3.638;2023-06-10T03:40:03;101390.19;;;19.25;60.92
78613;BME280;67933;51.060;3.638;2023-06-10T03:42:28;101394.13;;;19.21;60.94
78613;BME280;67933;51.060;3.638;2023-06-10T03:44:54;101388.91;;;19.19;61.24
78613;BME280;67933;51.060;3.638;2023-06-10T03:47:20;101393.41;;;19.19;61.38
78613;BME280;67933;51.060;3.638;2023-06-10T03:49:46;101396.13;;;19.19;61.76
78613;BME280;67933;51.060;3.638;2023-06-10T03:52:11;101398.31;;;19.14;61.97
78613;BME280;67933;51.060;3.638;2023-06-10T03:54:37;101398.81;;;19.19;61.63
78613;BME280;67933;51.060;3.638;2023-06-10T03:57:02;101405.75;;;19.21;61.56
78613;BME280;67933;51.060;3.638;2023-06-10T03:59:28;101405.25;;;19.28;61.43
78613;BME280;67933;51.060;3.638;2023-06-10T04:01:55;101402.78;;;19.25;61.59
78613;BME280;67933;51.060;3.638;2023-06-10T04:04:20;101401.22;;;19.22;61.93
78613;BME280;67933;51.060;3.638;2023-06-10T04:06:46;101401.50;;;19.19;62.16
78613;BME280;67933;51.060;3.638;2023-06-10T04:09:12;101405.16;;;19.18;62.39
78613;BME280;67933;51.060;3.638;2023-06-10T04:11:38;101409.06;;;19.14;62.44
78613;BME280;67933;51.060;3.638;2023-06-10T04:14:03;101407.13;;;19.16;62.35
78613;BME280;67933;51.060;3.638;2023-06-10T04:16:29;101415.91;;;19.18;62.33
78613;BME280;67933;51.060;3.638;2023-06-10T04:18:54;101419.72;;;19.15;62.57
78613;BME280;67933;51.060;3.638;2023-06-10T04:21:20;101423.25;;;19.16;62.69
78613;BME280;67933;51.060;3.638;2023-06-10T04:23:47;101417.63;;;19.19;62.60
78613;BME280;67933;51.060;3.638;2023-06-10T04:26:12;101427.00;;;19.25;62.48
78613;BME280;67933;51.060;3.638;2023-06-10T04:28:38;101425.53;;;19.20;62.87
78613;BME280;67933;51.060;3.638;2023-06-10T04:31:03;101429.56;;;19.26;62.56
78613;BME280;67933;51.060;3.638;2023-06-10T04:33:30;101426.88;;;19.26;62.56
78613;BME280;67933;51.060;3.638;2023-06-10T04:35:55;101423.34;;;19.26;62.93
78613;BME280;67933;51.060;3.638;2023-06-10T04:38:21;101432.59;;;19.33;62.74
78613;BME280;67933;51.060;3.638;2023-06-10T04:40:46;101431.63;;;19.34;62.75
78613;BME280;67933;51.060;3.638;2023-06-10T04:43:12;101432.81;;;19.41;62.49
78613;BME280;67933;51.060;3.638;2023-06-10T04:45:38;101434.75;;;19.39;62.92
78613;BME280;67933;51.060;3.638;2023-06-10T04:48:03;101440.88;;;19.41;62.74
78613;BME280;67933;51.060;3.638;2023-06-10T04:50:29;101436.78;;;19.46;62.53
78613;BME280;67933;51.060;3.638;2023-06-10T04:52:54;101441.97;;;19.49;62.72
78613;BME280;67933;51.060;3.638;2023-06-10T04:55:22;101434.75;;;19.50;63.00
78613;BME280;67933;51.060;3.638;2023-06-10T04:57:48;101434.09;;;19.46;63.35
78613;BME280;67933;51.060;3.638;2023-06-10T05:00:13;101443.13;;;19.56;62.48
78613;BME280;67933;51.060;3.638;2023-06-10T05:02:39;101440.66;;;19.65;62.18
78613;BME280;67933;51.060;3.638;2023-06-10T05:05:06;101435.31;;;19.74;62.21
78613;BME280;67933;51.060;3.638;2023-06-10T05:07:31;101440.75;;;19.84;61.84
78613;BME280;67933;51.060;3.638;2023-06-10T05:09:57;101438.66;;;19.87;61.85
78613;BME280;67933;51.060;3.638;2023-06-10T05:12:22;101431.59;;;19.96;61.29
78613;BME280;67933;51.060;3.638;2023-06-10T05:14:48;101437.56;;;19.99;60.79
78613;BME280;67933;51.060;3.638;2023-06-10T05:17:13;101436.56;;;20.01;61.33
78613;BME280;67933;51.060;3.638;2023-06-10T05:19:38;101439.16;;;20.02;61.63
78613;BME280;67933;51.060;3.638;2023-06-10T05:22:04;101434.06;;;20.09;61.08
78613;BME280;67933;51.060;3.638;2023-06-10T05:24:29;101434.66;;;20.12;61.09
78613;BME280;67933;51.060;3.638;2023-06-10T05:26:55;101440.47;;;20.17;60.64
78613;BME280;67933;51.060;3.638;2023-06-10T05:29:20;101431.28;;;20.29;59.88
78613;BME280;67933;51.060;3.638;2023-06-10T05:31:46;101437.63;;;20.40;60.28
78613;BME280;67933;51.060;3.638;2023-06-10T05:34:11;101440.75;;;20.45;59.32
78613;BME280;67933;51.060;3.638;2023-06-10T05:36:37;101431.53;;;20.47;60.41
78613;BME280;67933;51.060;3.638;2023-06-10T05:39:02;101432.81;;;20.53;59.40
78613;BME280;67933;51.060;3.638;2023-06-10T05:41:28;101433.69;;;20.63;58.31
78613;BME280;67933;51.060;3.638;2023-06-10T05:43:54;101431.75;;;20.74;58.33
78613;BME280;67933;51.060;3.638;2023-06-10T05:46:19;101439.41;;;20.79;58.21
78613;BME280;67933;51.060;3.638;2023-06-10T05:48:45;101436.28;;;20.84;58.40
78613;BME280;67933;51.060;3.638;2023-06-10T05:51:10;101442.13;;;20.89;58.27
78613;BME280;67933;51.060;3.638;2023-06-10T05:53:36;101434.31;;;20.95;58.86
78613;BME280;67933;51.060;3.638;2023-06-10T05:56:01;101441.28;;;21.07;57.71
78613;BME280;67933;51.060;3.638;2023-06-10T05:58:26;101442.72;;;21.11;57.53
78613;BME280;67933;51.060;3.638;2023-06-10T06:00:52;101425.53;;;21.22;56.85
78613;BME280;67933;51.060;3.638;2023-06-10T06:03:17;101432.38;;;21.26;58.08
78613;BME280;67933;51.060;3.638;2023-06-10T06:05:43;101437.91;;;21.34;57.06
78613;BME280;67933;51.060;3.638;2023-06-10T06:08:09;101435.47;;;21.41;56.27
78613;BME280;67933;51.060;3.638;2023-06-10T06:10:35;101434.03;;;21.46;56.01
78613;BME280;67933;51.060;3.638;2023-06-10T06:13:01;101440.28;;;21.47;56.06
78613;BME280;67933;51.060;3.638;2023-06-10T06:15:27;101435.75;;;21.57;56.07
78613;BME280;67933;51.060;3.638;2023-06-10T06:17:53;101440.88;;;21.60;55.75
78613;BME280;67933;51.060;3.638;2023-06-10T06:20:21;101435.13;;;21.73;55.02
78613;BME280;67933;51.060;3.638;2023-06-10T06:22:47;101440.81;;;21.79;55.27
78613;BME280;67933;51.060;3.638;2023-06-10T06:25:13;101439.47;;;21.93;54.69
78613;BME280;67933;51.060;3.638;2023-06-10T06:27:38;101445.88;;;22.02;55.21
78613;BME280;67933;51.060;3.638;2023-06-10T06:30:04;101440.69;;;22.18;55.08
78613;BME280;67933;51.060;3.638;2023-06-10T06:32:30;101448.84;;;22.45;53.53
78613;BME280;67933;51.060;3.638;2023-06-10T06:34:55;101437.94;;;23.35;52.34
78613;BME280;67933;51.060;3.638;2023-06-10T06:37:22;101447.72;;;24.24;48.95
78613;BME280;67933;51.060;3.638;2023-06-10T06:39:50;101436.06;;;24.89;47.09
78613;BME280;67933;51.060;3.638;2023-06-10T06:42:15;101441.22;;;25.33;45.79
78613;BME280;67933;51.060;3.638;2023-06-10T06:44:41;101445.34;;;25.61;44.76
78613;BME280;67933;51.060;3.638;2023-06-10T06:47:06;101441.22;;;25.82;43.38
78613;BME280;67933;51.060;3.638;2023-06-10T06:49:32;101445.88;;;26.20;43.28
78613;BME280;67933;51.060;3.638;2023-06-10T06:51:57;101448.88;;;26.72;41.90
78613;BME280;67933;51.060;3.638;2023-06-10T06:54:23;101452.59;;;26.49;41.85
78613;BME280;67933;51.060;3.638;2023-06-10T06:56:48;101450.66;;;26.96;41.45
78613;BME280;67933;51.060;3.638;2023-06-10T06:59:13;101449.16;;;26.86;42.52
78613;BME280;67933;51.060;3.638;2023-06-10T07:01:39;101448.38;;;27.53;39.98
78613;BME280;67933;51.060;3.638;2023-06-10T07:04:04;101456.78;;;28.11;38.34
78613;BME280;67933;51.060;3.638;2023-06-10T07:06:30;101453.38;;;28.31;39.56
78613;BME280;67933;51.060;3.638;2023-06-10T07:08:55;101465.16;;;28.68;36.90
78613;BME280;67933;51.060;3.638;2023-06-10T07:11:21;101455.69;;;28.64;37.04
78613;BME280;67933;51.060;3.638;2023-06-10T07:13:47;101464.31;;;28.82;37.58
78613;BME280;67933;51.060;3.638;2023-06-10T07:16:12;101452.28;;;29.19;37.22
78613;BME280;67933;51.060;3.638;2023-06-10T07:18:38;101451.78;;;29.52;35.60
78613;BME280;67933;51.060;3.638;2023-06-10T07:21:03;101459.84;;;29.60;35.55
78613;BME280;67933;51.060;3.638;2023-06-10T07:23:28;101458.81;;;30.16;35.01
78613;BME280;67933;51.060;3.638;2023-06-10T07:25:54;101455.63;;;30.47;34.82
78613;BME280;67933;51.060;3.638;2023-06-10T07:28:19;101460.22;;;30.06;35.74
78613;BME280;67933;51.060;3.638;2023-06-10T07:30:45;101453.69;;;29.30;34.99
78613;BME280;67933;51.060;3.638;2023-06-10T07:33:10;101456.94;;;30.17;35.52
78613;BME280;67933;51.060;3.638;2023-06-10T07:35:36;101452.75;;;30.62;34.70
78613;BME280;67933;51.060;3.638;2023-06-10T07:38:01;101467.22;;;30.97;33.09
78613;BME280;67933;51.060;3.638;2023-06-10T07:40:27;101461.16;;;30.54;32.32
78613;BME280;67933;51.060;3.638;2023-06-10T07:42:52;101461.88;;;30.82;31.51
78613;BME280;67933;51.060;3.638;2023-06-10T07:45:18;101465.38;;;31.24;32.00
78613;BME280;67933;51.060;3.638;2023-06-10T07:47:43;101461.44;;;31.72;31.48
78613;BME280;67933;51.060;3.638;2023-06-10T07:50:09;101478.47;;;32.14;32.53
78613;BME280;67933;51.060;3.638;2023-06-10T07:52:35;101466.88;;;32.12;32.59
78613;BME280;67933;51.060;3.638;2023-06-10T07:55:00;101478.94;;;31.98;28.93
78613;BME280;67933;51.060;3.638;2023-06-10T07:57:26;101470.72;;;31.78;30.86
78613;BME280;67933;51.060;3.638;2023-06-10T07:59:51;101468.94;;;32.30;29.59
78613;BME280;67933;51.060;3.638;2023-06-10T08:02:17;101480.66;;;32.70;28.20
78613;BME280;67933;51.060;3.638;2023-06-10T08:04:42;101472.84;;;32.67;28.75
78613;BME280;67933;51.060;3.638;2023-06-10T08:07:08;101478.47;;;32.14;29.74
78613;BME280;67933;51.060;3.638;2023-06-10T08:09:33;101472.38;;;31.99;30.86
78613;BME280;67933;51.060;3.638;2023-06-10T08:11:59;101473.22;;;32.19;28.89
78613;BME280;67933;51.060;3.638;2023-06-10T08:14:24;101475.22;;;32.50;31.09
78613;BME280;67933;51.060;3.638;2023-06-10T08:16:50;101464.97;;;33.21;29.29
78613;BME280;67933;51.060;3.638;2023-06-10T08:19:15;101474.78;;;33.04;28.46
78613;BME280;67933;51.060;3.638;2023-06-10T08:21:41;101474.13;;;33.40;28.28
78613;BME280;67933;51.060;3.638;2023-06-10T08:24:07;101475.91;;;33.59;28.71
78613;BME280;67933;51.060;3.638;2023-06-10T08:26:32;101470.97;;;33.68;29.03
78613;BME280;67933;51.060;3.638;2023-06-10T08:28:58;101477.00;;;32.89;28.18
78613;BME280;67933;51.060;3.638;2023-06-10T08:31:23;101480.47;;;32.58;27.22
78613;BME280;67933;51.060;3.638;2023-06-10T08:33:48;101486.22;;;33.01;26.21
78613;BME280;67933;51.060;3.638;2023-06-10T08:36:14;101478.88;;;32.31;27.37
78613;BME280;67933;51.060;3.638;2023-06-10T08:38:39;101481.94;;;32.74;27.31
78613;BME280;67933;51.060;3.638;2023-06-10T08:41:06;101478.31;;;33.49;25.97
78613;BME280;67933;51.060;3.638;2023-06-10T08:46:09;101477.00;;;33.83;26.62
78613;BME280;67933;51.060;3.638;2023-06-10T08:48:39;101469.69;;;34.32;25.13
78613;BME280;67933;51.060;3.638;2023-06-10T08:51:09;101472.63;;;34.37;23.45
78613;BME280;67933;51.060;3.638;2023-06-10T08:53:37;101469.03;;;33.44;25.84
78613;BME280;67933;51.060;3.638;2023-06-10T08:56:05;101483.09;;;33.85;24.31
78613;BME280;67933;51.060;3.638;2023-06-10T08:58:32;101484.75;;;33.61;25.47
78613;BME280;67933;51.060;3.638;2023-06-10T09:01:07;101469.31;;;33.36;26.10
78613;BME280;67933;51.060;3.638;2023-06-10T09:03:33;101475.22;;;33.89;25.69
78613;BME280;67933;51.060;3.638;2023-06-10T09:06:00;101473.69;;;34.72;25.10
78613;BME280;67933;51.060;3.638;2023-06-10T09:08:27;101471.41;;;35.29;25.46
78613;BME280;67933;51.060;3.638;2023-06-10T09:10:53;101469.28;;;35.13;22.95
78613;BME280;67933;51.060;3.638;2023-06-10T09:13:18;101468.59;;;34.88;22.80
78613;BME280;67933;51.060;3.638;2023-06-10T09:15:44;101479.28;;;34.84;23.43
78613;BME280;67933;51.060;3.638;2023-06-10T09:18:11;101478.59;;;35.00;23.73
78613;BME280;67933;51.060;3.638;2023-06-10T09:20:38;101477.91;;;35.35;25.59
78613;BME280;67933;51.060;3.638;2023-06-10T09:23:04;101479.94;;;35.39;22.77
78613;BME280;67933;51.060;3.638;2023-06-10T09:25:37;101485.81;;;35.31;22.68
78613;BME280;67933;51.060;3.638;2023-06-10T09:28:04;101480.91;;;35.33;22.80
78613;BME280;67933;51.060;3.638;2023-06-10T09:30:32;101480.28;;;35.31;24.08
78613;BME280;67933;51.060;3.638;2023-06-10T09:33:00;101481.31;;;36.42;22.06
78613;BME280;67933;51.060;3.638;2023-06-10T09:35:28;101482.09;;;36.77;22.92
78613;BME280;67933;51.060;3.638;2023-06-10T09:37:59;101488.97;;;35.17;21.62
78613;BME280;67933;51.060;3.638;2023-06-10T09:40:25;101476.69;;;35.84;21.81
78613;BME280;67933;51.060;3.638;2023-06-10T09:42:55;101483.03;;;35.31;22.74
78613;BME280;67933;51.060;3.638;2023-06-10T09:45:21;101477.81;;;35.53;22.42
78613;BME280;67933;51.060;3.638;2023-06-10T09:47:51;101485.38;;;35.46;23.15
78613;BME280;67933;51.060;3.638;2023-06-10T09:50:17;101480.59;;;36.46;22.86
78613;BME280;67933;51.060;3.638;2023-06-10T09:52:45;101481.50;;;35.77;22.21
78613;BME280;67933;51.060;3.638;2023-06-10T09:55:11;101486.34;;;36.68;21.89
78613;BME280;67933;51.060;3.638;2023-06-10T09:57:36;101480.41;;;35.90;21.92
78613;BME280;67933;51.060;3.638;2023-06-10T10:00:07;101483.72;;;35.15;22.73
78613;BME280;67933;51.060;3.638;2023-06-10T10:02:44;101481.94;;;34.91;24.71
78613;BME280;67933;51.060;3.638;2023-06-10T10:05:10;101474.84;;;36.01;23.65
78613;BME280;67933;51.060;3.638;2023-06-10T10:07:35;101471.03;;;36.66;21.67
78613;BME280;67933;51.060;3.638;2023-06-10T10:10:01;101480.44;;;37.66;21.04
78613;BME280;67933;51.060;3.638;2023-06-10T10:12:27;101474.53;;;37.29;21.36
78613;BME280;67933;51.060;3.638;2023-06-10T10:14:54;101479.56;;;37.32;20.17
78613;BME280;67933;51.060;3.638;2023-06-10T10:17:21;101483.38;;;36.11;20.93
78613;BME280;67933;51.060;3.638;2023-06-10T10:19:53;101481.09;;;35.73;21.18
78613;BME280;67933;51.060;3.638;2023-06-10T10:22:25;101474.72;;;36.43;19.57
78613;BME280;67933;51.060;3.638;2023-06-10T10:24:56;101475.00;;;36.30;21.39
78613;BME280;67933;51.060;3.638;2023-06-10T10:27:27;101481.59;;;36.80;20.21
78613;BME280;67933;51.060;3.638;2023-06-10T10:29:54;101468.91;;;36.56;20.25
78613;BME280;67933;51.060;3.638;2023-06-10T10:32:26;101468.75;;;37.31;19.87
78613;BME280;67933;51.060;3.638;2023-06-10T10:35:06;101464.97;;;37.37;20.01
78613;BME280;67933;51.060;3.638;2023-06-10T10:37:33;101466.69;;;35.95;20.67
78613;BME280;67933;51.060;3.638;2023-06-10T10:40:00;101459.38;;;36.23;20.44
78613;BME280;67933;51.060;3.638;2023-06-10T10:42:27;101464.13;;;36.40;19.77
78613;BME280;67933;51.060;3.638;2023-06-10T10:44:53;101457.94;;;37.80;19.92
78613;BME280;67933;51.060;3.638;2023-06-10T10:47:21;101454.72;;;37.88;18.56
78613;BME280;67933;51.060;3.638;2023-06-10T10:49:48;101461.94;;;37.22;18.43
78613;BME280;67933;51.060;3.638;2023-06-10T10:52:15;101454.66;;;36.36;18.99
78613;BME280;67933;51.060;3.638;2023-06-10T10:54:45;101449.09;;;36.87;20.61
78613;BME280;67933;51.060;3.638;2023-06-10T10:57:20;101431.09;;;37.63;20.05
78613;BME280;67933;51.060;3.638;2023-06-10T11:05:01;101451.09;;;36.23;19.16
78613;BME280;67933;51.060;3.638;2023-06-10T11:07:33;101445.88;;;36.39;18.44
78613;BME280;67933;51.060;3.638;2023-06-10T11:15:13;101440.09;;;36.40;18.84
78613;BME280;67933;51.060;3.638;2023-06-10T11:21:02;101431.31;;;36.83;19.14
78613;BME280;67933;51.060;3.638;2023-06-10T11:31:39;101439.09;;;35.83;18.64
78613;BME280;67933;51.060;3.638;2023-06-10T11:34:06;101431.22;;;35.33;18.46
78613;BME280;67933;51.060;3.638;2023-06-10T11:36:34;101431.41;;;35.73;19.07
78613;BME280;67933;51.060;3.638;2023-06-10T11:39:04;101432.13;;;35.92;17.81
78613;BME280;67933;51.060;3.638;2023-06-10T11:41:31;101434.72;;;35.64;18.49
78613;BME280;67933;51.060;3.638;2023-06-10T11:44:04;101425.03;;;36.59;19.16
78613;BME280;67933;51.060;3.638;2023-06-10T11:46:30;101423.56;;;36.57;17.37
78613;BME280;67933;51.060;3.638;2023-06-10T11:48:57;101425.03;;;36.48;17.63
78613;BME280;67933;51.060;3.638;2023-06-10T11:51:27;101415.88;;;36.31;17.87
78613;BME280;67933;51.060;3.638;2023-06-10T11:53:53;101416.81;;;36.64;18.08
78613;BME280;67933;51.060;3.638;2023-06-10T11:56:23;101424.53;;;37.36;15.78
78613;BME280;67933;51.060;3.638;2023-06-10T11:58:56;101415.03;;;36.70;17.90
78613;BME280;67933;51.060;3.638;2023-06-10T12:01:25;101414.38;;;36.40;17.49
78613;BME280;67933;51.060;3.638;2023-06-10T12:09:05;101421.13;;;35.27;18.75
78613;BME280;67933;51.060;3.638;2023-06-10T12:11:32;101416.88;;;35.13;18.45
78613;BME280;67933;51.060;3.638;2023-06-10T12:13:57;101415.25;;;36.17;17.57
78613;BME280;67933;51.060;3.638;2023-06-10T12:16:23;101389.63;;;37.35;18.36
78613;BME280;67933;51.060;3.638;2023-06-10T12:18:48;101400.38;;;36.70;16.45
78613;BME280;67933;51.060;3.638;2023-06-10T12:21:19;101411.69;;;35.93;17.81
78613;BME280;67933;51.060;3.638;2023-06-10T12:26:45;101387.28;;;36.13;16.35
78613;BME280;67933;51.060;3.638;2023-06-10T12:31:56;101399.59;;;36.46;17.06
78613;BME280;67933;51.060;3.638;2023-06-10T12:36:59;101401.97;;;36.82;16.96
78613;BME280;67933;51.060;3.638;2023-06-10T12:39:24;101391.00;;;36.87;16.88
78613;BME280;67933;51.060;3.638;2023-06-10T12:41:51;101397.81;;;36.96;16.28
78613;BME280;67933;51.060;3.638;2023-06-10T12:44:17;101389.63;;;37.68;15.91
78613;BME280;67933;51.060;3.638;2023-06-10T12:46:42;101376.28;;;37.65;17.03
78613;BME280;67933;51.060;3.638;2023-06-10T12:49:08;101396.00;;;38.29;16.03
78613;BME280;67933;51.060;3.638;2023-06-10T12:51:34;101391.88;;;35.49;17.42
78613;BME280;67933;51.060;3.638;2023-06-10T12:54:00;101389.63;;;36.45;17.98
78613;BME280;67933;51.060;3.638;2023-06-10T12:56:26;101385.66;;;36.97;16.22
78613;BME280;67933;51.060;3.638;2023-06-10T12:58:51;101390.41;;;35.70;17.82
78613;BME280;67933;51.060;3.638;2023-06-10T13:01:17;101378.84;;;36.32;17.58
78613;BME280;67933;51.060;3.638;2023-06-10T13:03:42;101375.19;;;37.33;16.05
78613;BME280;67933;51.060;3.638;2023-06-10T13:06:07;101380.53;;;36.61;17.37
78613;BME280;67933;51.060;3.638;2023-06-10T13:08:33;101386.78;;;36.56;16.70
78613;BME280;67933;51.060;3.638;2023-06-10T13:10:58;101377.47;;;36.74;17.12
78613;BME280;67933;51.060;3.638;2023-06-10T13:13:24;101375.00;;;36.89;17.93
78613;BME280;67933;51.060;3.638;2023-06-10T13:15:50;101373.59;;;36.18;16.20
78613;BME280;67933;51.060;3.638;2023-06-10T13:18:17;101377.59;;;35.99;16.76
78613;BME280;67933;51.060;3.638;2023-06-10T13:20:44;101358.09;;;37.36;16.58
78613;BME280;67933;51.060;3.638;2023-06-10T13:23:10;101364.28;;;37.43;16.02
78613;BME280;67933;51.060;3.638;2023-06-10T13:25:35;101363.03;;;37.89;17.24
78613;BME280;67933;51.060;3.638;2023-06-10T13:28:01;101351.09;;;37.50;15.93